Date,TemperatureHighF,TemperatureAvgF,TemperatureLowF,DewpointHighF,DewpointAvgF,DewpointLowF,HumidityHigh,HumidityAvg,HumidityLow,PressureMaxIn,PressureMinIn,WindSpeedMaxMPH,WindSpeedAvgMPH,GustSpeedMaxMPH,PrecipitationSumIn
2013-4-1,77.2,64.1,58.8,65.0,59.0,5.3,99,85,46,30.04,29.88,10,4,10,0.01
2013-4-2,81.0,67.6,53.6,56.9,49.9,20.7,99,61,12,30.09,29.98,10,3,10,0.00
2013-4-3,63.7,59.6,54.7,62.5,58.1,54.2,99,95,79,30.03,29.71,19,2,19,0.83
2013-4-4,74.3,61.2,55.8,67.0,58.8,-44.1,99,92,72,29.92,29.81,103,4,103,0.00
2013-4-5,69.1,58.1,52.3,56.0,49.8,42.9,99,76,45,30.09,29.90,17,8,17,0.00
2013-4-6,77.0,61.4,48.4,54.3,46.7,30.8,92,62,21,30.14,30.06,12,3,12,0.00
2013-4-7,81.9,65.1,52.2,64.9,54.9,47.0,99,73,32,30.11,30.00,9,3,9,0.00
2013-4-8,84.6,72.2,62.6,73.7,64.6,58.2,99,80,45,30.04,29.94,15,4,15,0.00
2013-4-9,84.2,74.9,69.1,72.0,68.0,63.8,99,81,54,30.05,29.93,17,5,17,0.00
2013-4-10,84.9,74.3,65.8,71.6,67.3,62.6,99,81,49,29.99,29.86,16,5,16,0.00
2013-4-11,82.6,73.8,62.8,76.2,72.0,62.5,99,94,78,29.86,29.54,20,6,20,0.64
2013-4-12,81.7,64.6,53.8,62.5,50.0,0.2,99,65,23,29.94,29.75,14,6,14,0.00
2013-4-13,67.6,56.5,53.1,48.8,47.1,42.9,81,72,43,30.02,29.92,7,2,7,0.00
2013-4-14,59.2,58.8,58.3,58.9,58.6,58.0,99,99,99,29.85,29.83,13,9,13,0.37
2013-4-15,75.9,75.0,73.9,72.0,71.5,70.9,93,89,86,29.93,29.92,7,4,7,0.66
2013-4-16,86.4,78.8,68.0,74.5,68.1,64.8,99,72,51,30.09,29.98,11,3,11,0.00
2013-4-17,84.4,75.0,68.0,73.8,68.6,60.1,99,82,49,30.09,29.97,14,3,14,0.00
2013-4-18,84.9,75.0,65.5,75.9,70.1,-3.2,99,86,56,29.98,29.83,17,4,17,0.00
2013-4-19,75.9,59.9,49.6,75.5,58.7,44.8,99,96,76,30.14,29.77,23,7,23,0.07
2013-4-20,77.0,58.7,44.2,47.7,36.9,20.6,90,51,12,30.23,30.08,53,3,53,0.19
2013-4-21,77.9,62.0,46.9,52.5,43.4,28.7,80,55,20,30.18,30.07,14,2,14,0.00
2013-4-22,81.3,67.0,57.0,65.6,55.2,42.8,98,67,42,30.11,30.01,14,2,14,0.00
2013-4-23,81.1,68.7,59.4,66.7,61.4,57.2,99,80,46,30.09,30.00,16,2,16,0.00
2013-4-24,78.1,68.4,61.5,71.2,65.5,61.3,99,91,65,30.11,29.98,9,2,9,0.00
2013-4-28,81.5,73.1,68.4,70.1,64.8,61.8,99,76,56,29.98,29.92,10,2,10,0.09
2013-4-29,87.6,73.4,66.2,70.8,66.0,59.9,99,80,41,29.96,29.86,8,2,8,0.00
2013-4-30,84.0,73.4,64.9,73.6,65.9,62.2,99,79,51,29.92,29.85,15,3,15,0.00